Time;durP1;ratioP1;P1;durP2;ratioP2;P2;SDS_P1;SDS_P2;PMS_P1;PMS_P2;Temp;Humidity;BMP_temperature;BMP_pressure;BME280_temperature;BME280_humidity;BME280_pressure;Samples;Min_cycle;Max_cycle;Signal;HPM_P1;HPM_P2
2021/12/05 00:22:47;;;;;;;5.35;1.50;;;;;;;7.00;95.33;98930.78;4984480;28;20034;-66
2021/12/05 00:25:22;;;;;;;3.13;1.30;;;;;;;6.98;95.50;98943.22;4978719;28;20821;-66
2021/12/05 00:27:59;;;;;;;2.33;1.10;;;;;;;6.94;95.23;98938.94;4977430;28;20030;-66
2021/12/05 00:31:03;;;;;;;4.43;1.60;;;;;;;6.97;95.83;98932.72;4989080;28;20066;-66
2021/12/05 01:13:29;;;;;;;6.40;2.28;;;;;;;7.04;97.39;98947.41;4984717;28;20059;-66
2021/12/05 01:15:57;;;;;;;3.10;1.40;;;;;;;6.96;96.92;98941.53;4992631;28;20026;-66
2021/12/05 01:18:25;;;;;;;3.80;1.52;;;;;;;6.78;97.18;98945.69;4993084;28;20118;-66
2021/12/05 01:20:56;;;;;;;3.85;1.85;;;;;;;6.80;97.78;98943.88;4993570;28;20022;-66
2021/12/05 01:23:40;;;;;;;4.32;1.98;;;;;;;6.77;96.51;98946.59;4980989;28;20057;-66
2021/12/05 01:26:09;;;;;;;;;;;;;;;6.87;96.13;98940.06;4973932;28;20030;-66
2021/12/05 01:36:45;;;;;;;;;;;;;;;6.87;95.74;98945.34;4976963;28;20042;-67
2021/12/05 01:39:36;;;;;;;5.88;1.58;;;;;;;6.89;95.96;98943.53;4993589;28;19980;-67
2021/12/05 01:52:43;;;;;;;6.90;1.60;;;;;;;6.91;94.90;98932.91;4992682;28;20814;-67
2021/12/05 02:43:27;;;;;;;2.50;1.48;;;;;;;6.43;98.36;98877.34;4985895;28;20027;-67
2021/12/05 02:45:57;;;;;;;2.58;1.58;;;;;;;6.36;98.60;98875.81;4989948;28;20040;-67
2021/12/05 02:48:25;;;;;;;3.33;1.60;;;;;;;6.35;98.88;98867.06;4989736;28;20129;-67
2021/12/05 02:50:51;;;;;;;3.80;1.85;;;;;;;6.30;98.97;98876.03;4991155;28;20082;-67
2021/12/05 02:53:27;;;;;;;8.07;2.38;;;;;;;6.22;100.00;98876.31;4981709;28;20097;-67
2021/12/05 02:55:53;;;;;;;3.65;1.38;;;;;;;6.22;99.91;98876.31;4991371;28;20593;-67
2021/12/05 03:01:08;;;;;;;4.70;1.70;;;;;;;6.27;100.00;98878.78;5002145;28;20102;-67
2021/12/05 03:03:35;;;;;;;6.00;2.20;;;;;;;6.24;100.00;98873.59;5000906;28;20573;-67
2021/12/05 03:06:19;;;;;;;4.15;1.70;;;;;;;6.23;100.00;98870.09;4980504;28;20026;-67
2021/12/05 03:08:45;;;;;;;;;;;;;;;6.22;100.00;98864.88;4990915;28;20022;-67
2021/12/05 03:11:12;;;;;;;4.32;1.35;;;;;;;6.17;100.00;98866.78;4984614;28;20129;-67
2021/12/05 03:13:40;;;;;;;3.00;1.30;;;;;;;6.05;100.00;98867.19;4977333;28;20125;-67
2021/12/05 03:16:07;;;;;;;2.40;1.17;;;;;;;6.05;100.00;98861.91;4988758;28;20041;-67
2021/12/05 03:18:32;;;;;;;2.15;1.70;;;;;;;6.01;100.00;98862.94;4990770;28;20034;-67
2021/12/05 03:20:58;;;;;;;3.28;1.70;;;;;;;5.92;100.00;98865.88;4990092;28;20439;-67
2021/12/05 03:23:25;;;;;;;2.38;1.27;;;;;;;5.84;100.00;98852.06;4985100;28;20634;-67
2021/12/05 03:25:51;;;;;;;1.92;1.13;;;;;;;5.86;100.00;98860.78;4988308;28;20022;-67
2021/12/05 03:28:17;;;;;;;3.22;1.50;;;;;;;5.85;100.00;98859.09;4991684;28;20113;-67
2021/12/05 03:30:43;;;;;;;2.80;1.23;;;;;;;5.80;100.00;98855.69;4994892;28;20117;-67
2021/12/05 03:33:08;;;;;;;1.55;1.23;;;;;;;5.80;100.00;98850.41;4976487;28;20027;-67
2021/12/05 03:35:34;;;;;;;2.13;1.10;;;;;;;5.80;100.00;98839.88;4971163;28;20027;-67
2021/12/05 03:38:00;;;;;;;2.83;1.30;;;;;;;5.86;100.00;98840.56;4977044;28;20080;-67
2021/12/05 03:40:28;;;;;;;2.72;1.23;;;;;;;5.86;100.00;98852.88;4991010;28;20541;-67
2021/12/05 03:42:55;;;;;;;3.85;1.40;;;;;;;5.90;100.00;98851.84;4988034;28;20106;-67
2021/12/05 03:45:29;;;;;;;3.65;1.52;;;;;;;5.87;100.00;98846.69;4986156;28;20051;-67
2021/12/05 03:47:56;;;;;;;2.00;1.33;;;;;;;5.81;100.00;98862.69;4975261;28;20452;-67
2021/12/05 03:50:23;;;;;;;4.85;1.98;;;;;;;5.85;100.00;98848.53;4981724;28;20057;-67
2021/12/05 03:52:49;;;;;;;2.22;1.20;;;;;;;5.82;100.00;98848.56;4973502;28;20038;-67
2021/12/05 03:55:15;;;;;;;1.35;1.25;;;;;;;5.84;100.00;98852.94;4977935;28;20042;-67
2021/12/05 03:57:41;;;;;;;4.57;1.35;;;;;;;5.76;100.00;98854.06;4992473;28;20036;-67
2021/12/05 04:00:23;;;;;;;1.85;1.10;;;;;;;5.76;100.00;98860.22;4994329;28;20105;-67
2021/12/05 04:02:51;;;;;;;3.38;1.17;;;;;;;5.72;100.00;98862.97;4998174;28;20033;-67
2021/12/05 04:05:17;;;;;;;2.47;1.55;;;;;;;5.73;100.00;98856.78;5013591;28;20449;-67
2021/12/05 04:07:42;;;;;;;3.33;1.55;;;;;;;5.70;100.00;98848.97;4991282;28;20033;-67
2021/12/05 04:10:09;;;;;;;5.13;1.80;;;;;;;5.74;100.00;98842.69;4993922;28;20399;-67
2021/12/05 04:12:35;;;;;;;4.25;1.48;;;;;;;5.78;100.00;98846.97;4991071;28;20414;-67
2021/12/05 04:15:00;;;;;;;2.90;1.52;;;;;;;5.78;100.00;98836.41;4990602;28;20026;-67
2021/12/05 04:17:26;;;;;;;9.85;5.43;;;;;;;5.81;100.00;98841.56;4974246;28;20536;-67
2021/12/05 04:19:52;;;;;;;8.55;2.35;;;;;;;5.84;100.00;98845.03;4979409;28;20031;-67
2021/12/05 04:22:18;;;;;;;5.70;1.65;;;;;;;5.82;100.00;98838.91;4976249;28;20096;-67
2021/12/05 04:24:45;;;;;;;4.63;1.65;;;;;;;5.77;100.00;98840.81;4976795;28;20146;-67
2021/12/05 04:27:11;;;;;;;9.00;1.83;;;;;;;5.78;100.00;98839.91;4978762;28;20022;-67
2021/12/05 04:29:37;;;;;;;2.92;1.48;;;;;;;5.75;100.00;98842.63;4974385;28;20058;-67
2021/12/05 04:32:03;;;;;;;11.02;2.50;;;;;;;5.67;100.00;98849.94;4986955;28;20030;-67
2021/12/05 04:34:29;;;;;;;3.63;1.70;;;;;;;5.65;100.00;98851.75;4993936;28;20113;-67
2021/12/05 04:36:56;;;;;;;10.27;1.98;;;;;;;5.58;100.00;98844.09;4990457;28;20133;-67
2021/12/05 04:39:23;;;;;;;3.90;1.58;;;;;;;5.51;100.00;98847.81;4989192;28;20407;-67
2021/12/05 04:41:49;;;;;;;1.20;1.08;;;;;;;5.53;100.00;98846.88;4993426;28;20088;-67
2021/12/05 04:44:16;;;;;;;1.70;1.35;;;;;;;5.60;100.00;98842.28;4994658;28;20517;-67
2021/12/05 04:46:41;;;;;;;3.97;1.63;;;;;;;5.68;100.00;98845.53;4985834;28;20019;-67
2021/12/05 04:49:07;;;;;;;5.97;1.70;;;;;;;5.67;100.00;98830.63;4992619;28;20387;-67
2021/12/05 04:51:36;;;;;;;4.55;1.65;;;;;;;5.61;100.00;98839.59;4994273;28;20039;-67
2021/12/05 04:54:03;;;;;;;1.27;1.00;;;;;;;5.62;100.00;98841.28;4985954;28;20057;-67
2021/12/05 04:56:29;;;;;;;3.42;1.60;;;;;;;5.70;100.00;98838.44;4992686;28;20436;-67
2021/12/05 04:58:56;;;;;;;2.65;1.38;;;;;;;5.67;100.00;98847.28;4994266;28;20038;-67
2021/12/05 05:01:23;;;;;;;4.03;1.73;;;;;;;5.66;100.00;98844.69;4989276;28;20031;-67
2021/12/05 05:03:49;;;;;;;1.60;1.30;;;;;;;5.66;100.00;98832.38;4988122;28;20406;-67
2021/12/05 05:06:16;;;;;;;2.70;1.55;;;;;;;5.68;100.00;98825.28;4991200;28;20109;-67
2021/12/05 05:08:44;;;;;;;2.95;1.67;;;;;;;5.58;100.00;98829.13;5000429;28;20026;-67
2021/12/05 05:11:14;;;;;;;6.88;1.90;;;;;;;5.50;100.00;98825.88;5012557;28;20037;-67
2021/12/05 05:13:41;;;;;;;4.88;2.20;;;;;;;5.40;100.00;98825.28;4990644;28;20439;-67
2021/12/05 05:16:08;;;;;;;9.23;4.30;;;;;;;5.38;100.00;98827.13;4981907;28;20026;-67
2021/12/05 05:18:48;;;;;;;8.55;2.10;;;;;;;5.32;100.00;98827.28;4977685;28;20070;-67
2021/12/05 05:50:17;;;;;;;6.70;1.80;;;;;;;5.66;100.00;98848.22;4973186;28;20062;-67
2021/12/05 05:52:43;;;;;;;4.72;2.25;;;;;;;5.67;100.00;98846.44;4987324;28;20033;-67
2021/12/05 05:55:10;;;;;;;6.18;2.05;;;;;;;5.70;100.00;98855.09;4991110;28;20367;-67
2021/12/05 05:57:42;;;;;;;7.22;2.25;;;;;;;5.69;100.00;98857.78;4985370;28;20018;-67
2021/12/05 06:00:28;;;;;;;7.45;2.40;;;;;;;5.56;100.00;98835.34;4973321;28;20019;-67
2021/12/05 06:05:37;;;;;;;7.90;2.10;;;;;;;5.66;100.00;98857.88;4991846;28;20453;-67
2021/12/05 06:08:06;;;;;;;3.38;2.20;;;;;;;5.68;100.00;98853.44;4981818;28;20030;-66
2021/12/05 06:10:32;;;;;;;10.70;2.25;;;;;;;5.71;100.00;98850.69;4974073;28;20031;-66
2021/12/05 06:12:58;;;;;;;3.42;2.17;;;;;;;5.75;100.00;98857.63;4972839;28;20055;-68
2021/12/05 06:15:26;;;;;;;4.80;2.42;;;;;;;5.69;100.00;98858.66;4982046;28;20081;-68
2021/12/05 06:17:55;;;;;;;10.50;2.90;;;;;;;5.61;100.00;98858.03;4989847;28;20027;-68
2021/12/05 06:20:25;;;;;;;5.20;1.88;;;;;;;5.55;100.00;98850.34;4994324;28;20359;-68
2021/12/05 06:22:52;;;;;;;9.18;2.28;;;;;;;5.53;100.00;98854.78;4982160;28;20054;-67
2021/12/05 06:25:22;;;;;;;2.75;1.40;;;;;;;5.39;100.00;98852.56;4975038;28;20038;-67
2021/12/05 06:27:49;;;;;;;6.18;2.75;;;;;;;5.36;100.00;98860.56;4972457;28;20097;-67
2021/12/05 06:30:21;;;;;;;4.70;2.47;;;;;;;5.36;100.00;98855.31;4973400;28;20066;-67
2021/12/05 06:40:59;;;;;;;3.60;1.92;;;;;;;5.30;100.00;98842.28;4992408;28;20030;-67
2021/12/05 06:48:27;;;;;;;6.25;3.33;;;;;;;5.20;100.00;98855.81;4991782;28;20040;-67
2021/12/05 06:50:52;;;;;;;11.70;2.88;;;;;;;5.17;100.00;98854.09;4992363;28;20030;-67
2021/12/05 06:53:17;;;;;;;7.03;2.22;;;;;;;5.23;100.00;98848.66;4992690;28;20033;-67
2021/12/05 06:55:43;;;;;;;4.85;2.30;;;;;;;5.24;100.00;98853.03;4973618;28;20411;-67
2021/12/05 06:58:08;;;;;;;6.18;3.30;;;;;;;5.24;100.00;98854.78;4974390;28;20047;-67
2021/12/05 07:00:34;;;;;;;5.03;2.63;;;;;;;5.31;100.00;98858.97;4987937;28;20618;-67
2021/12/05 07:03:00;;;;;;;4.82;2.92;;;;;;;5.28;100.00;98857.31;4991285;28;20096;-67
2021/12/05 07:05:42;;;;;;;4.88;2.22;;;;;;;5.36;100.00;98862.34;4984359;28;20018;-67
2021/12/05 07:08:10;;;;;;;9.63;2.90;;;;;;;5.44;100.00;98862.13;4971678;28;20031;-67
2021/12/05 07:16:21;;;;;;;10.85;3.75;;;;;;;5.48;100.00;98850.56;4991451;28;20029;-68
2021/12/05 07:19:05;;;;;;;8.40;3.53;;;;;;;5.62;100.00;98858.91;4990672;28;20022;-68
2021/12/05 07:24:13;;;;;;;8.95;2.33;;;;;;;5.60;100.00;98863.38;4983302;28;20058;-68
2021/12/05 07:42:44;;;;;;;8.68;2.25;;;;;;;5.76;100.00;98844.38;4985697;28;20500;-68
2021/12/05 07:45:16;;;;;;;2.88;1.73;;;;;;;5.79;100.00;98846.91;4990077;28;20026;-68
2021/12/05 07:47:45;;;;;;;9.82;4.38;;;;;;;5.82;100.00;98852.13;4980502;28;20390;-68
2021/12/05 07:50:12;;;;;;;4.20;2.58;;;;;;;5.73;100.00;98838.34;4976249;28;20391;-68
2021/12/05 07:52:42;;;;;;;12.50;3.30;;;;;;;5.92;100.00;98860.59;4971138;28;20030;-67
2021/12/05 07:55:19;;;;;;;3.83;2.75;;;;;;;5.83;100.00;98839.78;4972560;28;20098;-67
2021/12/05 08:00:33;;;;;;;11.98;3.28;;;;;;;5.98;100.00;98860.41;5001062;28;20026;-67
2021/12/05 08:16:44;;;;;;;;;;;;;;;6.28;100.00;98865.53;4992238;28;20104;-67
2021/12/05 08:19:10;;;;;;;4.72;1.73;;;;;;;6.30;100.00;98863.69;4980906;28;19914;-67
2021/12/05 08:21:35;;;;;;;6.72;2.10;;;;;;;6.26;100.00;98856.78;4991225;28;20026;-67
2021/12/05 08:24:01;;;;;;;3.47;1.88;;;;;;;6.29;100.00;98863.75;4987076;28;20034;-67
2021/12/05 08:26:32;;;;;;;6.38;1.90;;;;;;;6.33;100.00;98875.91;4990897;28;20049;-67
2021/12/05 08:29:09;;;;;;;4.53;1.63;;;;;;;6.31;100.00;98864.56;4990498;28;20045;-67
2021/12/05 10:10:56;;;;;;;3.63;1.90;;;;;;;7.40;93.63;98885.25;4994196;28;20034;-67
2021/12/05 10:13:51;;;;;;;3.20;1.80;;;;;;;7.50;93.48;98900.72;4981737;28;20042;-67
2021/12/05 10:26:15;;;;;;;5.03;2.03;;;;;;;7.55;93.17;98898.75;4992864;28;20113;-67
2021/12/05 10:37:11;;;;;;;3.70;1.98;;;;;;;7.58;93.09;98897.75;4987131;28;20509;-68
2021/12/05 10:39:37;;;;;;;1.63;1.13;;;;;;;7.59;92.25;98895.09;4992270;28;20398;-68
2021/12/05 10:42:40;;;;;;;2.78;1.40;;;;;;;7.62;92.52;98894.97;4989206;28;20438;-68
2021/12/05 10:45:08;;;;;;;4.22;2.10;;;;;;;7.73;92.74;98881.28;4990092;28;20034;-68
2021/12/05 10:47:45;;;;;;;7.65;2.90;;;;;;;7.78;92.47;98887.28;4991344;28;20040;-68
2021/12/05 10:50:41;;;;;;;8.55;2.70;;;;;;;8.00;92.80;98881.09;4991893;28;20034;-68
2021/12/05 10:53:24;;;;;;;4.32;2.00;;;;;;;8.11;91.23;98885.06;4988597;28;20081;-68
2021/12/05 10:56:07;;;;;;;4.00;1.60;;;;;;;8.37;91.08;98890.19;4990230;28;20033;-68
2021/12/05 10:58:35;;;;;;;5.67;3.07;;;;;;;8.48;90.01;98885.31;4983269;28;20041;-68
2021/12/05 11:01:13;;;;;;;3.90;1.75;;;;;;;8.46;88.62;98890.66;4975385;28;20266;-68
2021/12/05 11:03:40;;;;;;;1.95;1.15;;;;;;;8.49;88.63;98879.06;4972496;28;20485;-68
2021/12/05 11:06:22;;;;;;;3.78;1.50;;;;;;;8.57;88.25;98876.94;4985599;28;20610;-68
2021/12/05 11:08:53;;;;;;;3.33;1.60;;;;;;;8.75;87.96;98884.09;4991789;28;20449;-68
2021/12/05 11:11:18;;;;;;;4.95;2.40;;;;;;;8.89;87.10;98876.44;4990696;28;20025;-68
2021/12/05 11:13:45;;;;;;;2.55;1.50;;;;;;;8.81;86.24;98871.44;4987042;28;20042;-67
2021/12/05 11:16:31;;;;;;;2.72;1.10;;;;;;;8.80;85.43;98875.03;4991146;28;20105;-68
2021/12/05 11:18:57;;;;;;;1.92;1.23;;;;;;;8.76;85.28;98872.59;4991664;28;20401;-68
2021/12/05 11:21:35;;;;;;;4.38;1.83;;;;;;;8.84;85.62;98875.78;4992459;28;20011;-68
2021/12/05 11:24:10;;;;;;;3.08;1.75;;;;;;;8.93;84.97;98873.56;4977116;28;20026;-68
2021/12/05 11:26:38;;;;;;;6.13;2.08;;;;;;;9.04;83.75;98875.75;4972550;28;20041;-68
2021/12/05 11:29:04;;;;;;;3.60;1.77;;;;;;;9.21;83.85;98876.72;4983339;28;20049;-68
2021/12/05 11:31:31;;;;;;;7.85;3.38;;;;;;;9.36;82.38;98882.28;4990884;28;20278;-67
2021/12/05 11:33:57;;;;;;;5.18;2.45;;;;;;;9.43;82.99;98870.41;4991976;28;20041;-67
2021/12/05 11:36:25;;;;;;;8.52;3.78;;;;;;;9.51;81.06;98879.75;4982545;28;20480;-67
2021/12/05 11:38:51;;;;;;;8.75;3.63;;;;;;;9.47;80.31;98874.66;4987319;28;20030;-67
2021/12/05 11:41:20;;;;;;;6.40;3.17;;;;;;;9.45;79.52;98874.75;4970928;28;20015;-67
2021/12/05 11:43:46;;;;;;;4.57;2.25;;;;;;;9.35;79.87;98870.78;4981434;28;20030;-67
2021/12/05 11:46:36;;;;;;;3.42;1.75;;;;;;;9.21;81.10;98875.84;4990334;28;20076;-67
2021/12/05 11:49:08;;;;;;;3.42;1.50;;;;;;;9.23;81.37;98874.00;4986044;28;20447;-67
2021/12/05 11:51:41;;;;;;;3.45;1.75;;;;;;;9.19;81.52;98867.97;4975822;28;20120;-67
2021/12/05 11:54:10;;;;;;;13.35;4.63;;;;;;;9.31;82.12;98850.63;4971260;28;20026;-67
2021/12/05 11:56:44;;;;;;;21.10;7.30;;;;;;;9.20;79.63;98863.53;4991308;28;20042;-67
2021/12/05 11:59:26;;;;;;;19.20;7.03;;;;;;;9.22;79.96;98853.72;4984336;28;20023;-67
2021/12/05 12:02:13;;;;;;;9.52;3.92;;;;;;;9.23;79.67;98853.63;4990325;28;20049;-67
2021/12/05 12:04:41;;;;;;;4.03;2.15;;;;;;;9.29;80.17;98850.69;4991479;28;20031;-67
2021/12/05 12:07:17;;;;;;;5.35;2.08;;;;;;;9.42;80.78;98858.09;4994389;28;20034;-67
2021/12/05 12:09:45;;;;;;;3.55;2.15;;;;;;;9.43;79.92;98852.72;4991374;28;20030;-67
2021/12/05 12:12:11;;;;;;;3.58;2.00;;;;;;;9.37;79.75;98845.06;4979985;28;20042;-67
2021/12/05 12:14:37;;;;;;;5.93;2.22;;;;;;;9.40;80.41;98855.50;4992699;28;20026;-67
2021/12/05 12:17:08;;;;;;;2.90;1.70;;;;;;;9.38;81.12;98851.19;4984999;28;20545;-67
2021/12/05 12:19:35;;;;;;;4.78;1.92;;;;;;;9.25;80.96;98843.81;4994617;28;20037;-67
2021/12/05 12:22:03;;;;;;;5.10;2.38;;;;;;;9.23;82.02;98847.47;4994366;28;20054;-67
2021/12/05 12:24:29;;;;;;;2.80;1.98;;;;;;;9.23;82.06;98839.50;4993819;28;20082;-67
2021/12/05 12:26:55;;;;;;;3.42;2.03;;;;;;;9.24;83.50;98843.91;4987268;28;20093;-67
2021/12/05 12:29:23;;;;;;;4.20;1.38;;;;;;;9.26;82.93;98831.41;4974966;28;20019;-68
2021/12/05 12:31:50;;;;;;;3.78;1.70;;;;;;;9.36;82.62;98837.16;4978460;28;20033;-67
2021/12/05 12:34:19;;;;;;;5.88;1.95;;;;;;;9.42;82.07;98837.75;4995430;28;20034;-67
2021/12/05 12:36:49;;;;;;;2.47;1.48;;;;;;;9.42;81.38;98839.53;4994237;28;20037;-67
2021/12/05 12:39:18;;;;;;;3.65;1.95;;;;;;;9.49;80.99;98833.84;4994827;28;20621;-67
2021/12/05 12:42:02;;;;;;;3.85;1.63;;;;;;;9.60;80.52;98842.19;4981232;28;20037;-67
2021/12/05 12:44:29;;;;;;;4.60;1.67;;;;;;;9.66;79.63;98833.91;4974195;28;20137;-67
2021/12/05 12:47:00;;;;;;;5.35;2.17;;;;;;;9.66;79.71;98835.69;4998883;28;20088;-67
2021/12/05 12:49:38;;;;;;;3.13;1.33;;;;;;;9.69;79.68;98833.75;5012652;28;20089;-67
2021/12/05 12:52:14;;;;;;;3.10;1.45;;;;;;;9.52;78.65;98833.72;5013327;28;20045;-67
2021/12/05 12:54:44;;;;;;;3.88;1.60;;;;;;;9.49;79.52;98838.31;5000574;28;20019;-67
2021/12/05 12:57:19;;;;;;;3.22;1.70;;;;;;;9.43;79.98;98822.66;4989775;28;20097;-67
2021/12/05 12:59:58;;;;;;;7.25;2.22;;;;;;;9.51;79.29;98839.94;4990565;28;20022;-67
2021/12/05 13:02:38;;;;;;;2.65;1.52;;;;;;;9.59;79.90;98828.97;4978058;28;20038;-67
2021/12/05 13:05:23;;;;;;;2.75;1.60;;;;;;;9.61;78.48;98825.31;4989273;28;20035;-67
2021/12/05 13:10:42;;;;;;;5.85;2.40;;;;;;;9.48;79.18;98805.59;4992009;28;20038;-67
2021/12/05 13:13:15;;;;;;;4.30;2.50;;;;;;;9.44;79.55;98825.22;4993809;28;20077;-67
2021/12/05 13:15:49;;;;;;;4.93;1.93;;;;;;;9.31;79.21;98832.91;4992049;28;20018;-67
2021/12/05 13:18:23;;;;;;;4.38;2.15;;;;;;;9.18;80.36;98833.53;4978940;28;20034;-67
2021/12/05 13:21:17;;;;;;;4.93;2.58;;;;;;;8.82;80.44;98792.78;4983517;28;20113;-67
2021/12/05 13:23:53;;;;;;;4.15;2.58;;;;;;;8.95;81.79;98825.78;4976233;28;20161;-67
2021/12/05 13:26:21;;;;;;;5.47;2.78;;;;;;;8.93;82.13;98825.84;4973661;28;20038;-67
2021/12/05 13:28:48;;;;;;;6.00;3.00;;;;;;;8.93;83.05;98833.78;4985398;28;20109;-67
2021/12/05 13:31:32;;;;;;;8.27;3.00;;;;;;;8.92;83.46;98820.59;4992925;28;20038;-67
2021/12/05 13:34:22;;;;;;;5.60;2.80;;;;;;;8.90;84.10;98815.38;4984164;28;20112;-67
2021/12/05 13:36:51;;;;;;;4.65;2.88;;;;;;;8.98;84.92;98822.97;4973066;28;20026;-67
2021/12/05 13:39:41;;;;;;;5.35;2.65;;;;;;;9.06;84.68;98820.88;4976183;28;20030;-67
2021/12/05 13:42:27;;;;;;;4.47;2.70;;;;;;;9.08;84.52;98827.81;4945019;28;20447;-67
2021/12/05 13:45:14;;;;;;;6.70;2.80;;;;;;;9.27;84.25;98819.88;4973535;28;20023;-67
2021/12/05 13:47:45;;;;;;;4.65;2.35;;;;;;;9.38;84.11;98814.03;4982323;28;20038;-67
2021/12/05 13:50:19;;;;;;;4.13;2.35;;;;;;;9.54;83.43;98818.56;4993150;28;20030;-67
2021/12/05 13:52:56;;;;;;;3.72;1.50;;;;;;;9.57;82.35;98818.41;5009810;28;20026;-67
2021/12/05 13:55:53;;;;;;;2.92;1.60;;;;;;;9.46;80.03;98828.69;5013034;28;20033;-67
2021/12/05 13:58:45;;;;;;;2.83;1.48;;;;;;;9.44;81.04;98825.22;4992280;28;20386;-67
2021/12/05 14:01:19;;;;;;;2.72;1.52;;;;;;;9.42;80.56;98826.25;4990352;28;20057;-67
2021/12/05 14:03:47;;;;;;;;;;;;;;;9.31;79.82;98818.78;4984817;28;20049;-67
2021/12/05 14:06:29;;;;;;;4.85;2.20;;;;;;;9.13;79.75;98828.47;4991950;28;19933;-67
2021/12/05 14:09:16;;;;;;;5.65;1.83;;;;;;;8.93;75.36;98839.09;4988764;28;20026;-67
2021/12/05 14:11:49;;;;;;;1.92;1.30;;;;;;;8.83;73.57;98842.25;4992298;28;20046;-67
2021/12/05 14:14:17;;;;;;;4.00;1.60;;;;;;;8.73;74.27;98846.22;4992264;28;20166;-67
2021/12/05 14:16:45;;;;;;;3.88;1.67;;;;;;;8.80;75.55;98852.97;4990758;28;20038;-67
2021/12/05 14:19:15;;;;;;;2.50;1.55;;;;;;;8.77;76.64;98847.78;4991688;28;20478;-67
2021/12/05 14:21:46;;;;;;;4.40;2.45;;;;;;;8.81;76.27;98857.34;4991986;28;20026;-68
2021/12/05 14:24:13;;;;;;;8.00;2.28;;;;;;;8.87;76.45;98854.41;4982584;28;20469;-68
2021/12/05 14:26:40;;;;;;;3.88;1.95;;;;;;;8.83;76.40;98864.28;4992238;28;20084;-68
2021/12/05 14:29:13;;;;;;;3.90;1.90;;;;;;;8.80;76.98;98874.16;4985312;28;20034;-68
2021/12/05 14:31:54;;;;;;;7.32;3.33;;;;;;;8.76;77.83;98856.69;4989486;28;20438;-67
2021/12/05 14:34:20;;;;;;;6.93;3.15;;;;;;;8.91;77.99;98878.06;4989799;28;20041;-67
2021/12/05 14:36:52;;;;;;;6.88;3.20;;;;;;;8.90;78.47;98878.16;4984146;28;20033;-66
2021/12/05 14:39:23;;;;;;;10.77;4.65;;;;;;;8.89;79.74;98874.66;4991719;28;20031;-67
2021/12/05 14:41:52;;;;;;;6.07;3.25;;;;;;;8.87;79.91;98876.50;4982661;28;20033;-67
2021/12/05 14:44:20;;;;;;;12.02;5.13;;;;;;;8.81;79.84;98881.22;4991646;28;20037;-67
2021/12/05 14:46:57;;;;;;;12.55;3.05;;;;;;;8.82;79.36;98877.63;4988905;28;20498;-67
2021/12/05 14:49:29;;;;;;;6.80;2.78;;;;;;;8.88;78.29;98875.56;4978878;28;20122;-67
2021/12/05 14:51:55;;;;;;;8.88;4.45;;;;;;;8.85;78.68;98877.47;4989513;28;20066;-67
2021/12/05 14:54:26;;;;;;;9.18;5.78;;;;;;;8.71;79.73;98878.09;4989248;28;20461;-67
2021/12/05 14:56:53;;;;;;;5.82;3.63;;;;;;;8.80;79.81;98875.03;4985035;28;20502;-67
2021/12/05 14:59:19;;;;;;;10.13;5.78;;;;;;;8.76;80.25;98894.69;4971526;28;20027;-67
2021/12/05 15:01:48;;;;;;;7.57;4.22;;;;;;;8.75;80.12;98892.06;4975770;28;20081;-67
2021/12/05 15:04:19;;;;;;;6.57;3.95;;;;;;;8.68;80.57;98890.63;4973859;28;20121;-67
2021/12/05 15:06:45;;;;;;;5.80;3.50;;;;;;;8.58;81.15;98892.78;4973127;28;20058;-67
2021/12/05 15:09:27;;;;;;;8.82;4.15;;;;;;;8.53;82.22;98896.56;4984449;28;20065;-67
2021/12/05 15:12:03;;;;;;;13.10;5.20;;;;;;;8.40;82.50;98898.84;4971764;28;20027;-67
2021/12/05 15:14:31;;;;;;;8.70;4.70;;;;;;;8.34;83.05;98904.41;4974225;28;20058;-67
2021/12/05 15:17:07;;;;;;;13.00;6.22;;;;;;;8.29;84.06;98908.16;4981829;28;20031;-67
2021/12/05 15:19:33;;;;;;;15.20;8.10;;;;;;;8.21;84.41;98910.25;4971924;28;20055;-67
2021/12/05 15:22:01;;;;;;;10.80;5.15;;;;;;;8.21;84.80;98915.53;4974400;28;20027;-67
2021/12/05 15:24:27;;;;;;;11.70;5.90;;;;;;;8.09;85.18;98906.31;4985674;28;20076;-67
2021/12/05 15:26:55;;;;;;;10.82;5.82;;;;;;;8.01;85.04;98901.34;4990875;28;20434;-67
2021/12/05 15:29:22;;;;;;;9.80;4.40;;;;;;;8.10;85.47;98912.47;4981403;28;20491;-67
2021/12/05 15:31:48;;;;;;;9.20;3.78;;;;;;;8.04;86.41;98925.03;4990709;28;20030;-67
2021/12/05 15:34:22;;;;;;;9.02;4.20;;;;;;;8.00;86.02;98923.44;4984420;28;20037;-67
2021/12/05 15:36:49;;;;;;;6.07;4.28;;;;;;;7.90;86.93;98922.09;4976191;28;20378;-68
2021/12/05 15:39:20;;;;;;;10.88;4.72;;;;;;;7.88;87.98;98928.34;4971675;28;20101;-67
2021/12/05 15:41:51;;;;;;;8.68;3.95;;;;;;;7.82;87.90;98929.44;4993296;28;20114;-67
2021/12/05 15:44:30;;;;;;;8.70;4.20;;;;;;;7.77;88.41;98936.72;4994653;28;20086;-67
2021/12/05 15:47:24;;;;;;;8.75;4.20;;;;;;;7.72;88.46;98953.69;4995910;28;20042;-67
2021/12/05 15:49:57;;;;;;;11.85;5.03;;;;;;;7.67;88.52;98959.16;4986631;28;20030;-67
2021/12/05 15:52:35;;;;;;;6.03;4.15;;;;;;;7.56;88.46;98952.56;4997621;28;20029;-67
2021/12/05 15:55:05;;;;;;;13.73;5.10;;;;;;;7.60;88.62;98962.06;4989411;28;20074;-67
2021/12/05 15:57:33;;;;;;;13.55;6.15;;;;;;;7.58;89.43;98962.13;4997063;28;20072;-67
2021/12/05 16:00:03;;;;;;;20.48;7.15;;;;;;;7.57;88.74;98971.00;4997363;28;20023;-67
2021/12/05 16:02:29;;;;;;;18.20;7.97;;;;;;;7.55;88.99;98970.19;4998172;28;20022;-67
2021/12/05 16:04:56;;;;;;;20.75;8.73;;;;;;;7.57;89.17;98970.13;4994262;28;20019;-67
2021/12/05 16:07:26;;;;;;;19.17;9.60;;;;;;;7.60;89.84;98978.84;4987487;28;20093;-67
2021/12/05 16:09:51;;;;;;;22.08;9.80;;;;;;;7.58;89.64;98983.31;4980588;28;20033;-67
2021/12/05 16:12:19;;;;;;;23.70;11.55;;;;;;;7.60;90.39;98984.13;4974705;28;20399;-67
2021/12/05 16:14:52;;;;;;;20.60;9.77;;;;;;;7.60;89.96;98980.59;4979469;28;20026;-67
2021/12/05 16:17:24;;;;;;;17.17;8.27;;;;;;;7.65;87.29;98984.81;4984866;28;20046;-67
2021/12/05 16:20:18;;;;;;;24.83;11.75;;;;;;;7.63;87.67;98989.28;4976166;28;20019;-67
2021/12/05 16:23:05;;;;;;;17.63;9.30;;;;;;;7.65;87.01;98984.81;4975591;28;20027;-67
2021/12/05 16:25:34;;;;;;;10.98;6.72;;;;;;;7.62;87.76;98987.59;4977717;28;20018;-67
2021/12/05 16:28:02;;;;;;;10.30;5.70;;;;;;;7.59;88.29;99000.94;4989681;28;20033;-67
2021/12/05 16:30:34;;;;;;;6.90;3.85;;;;;;;7.54;88.32;98994.94;4992493;28;20382;-67
2021/12/05 16:33:02;;;;;;;6.95;3.58;;;;;;;7.50;88.55;99000.38;4979101;28;20034;-67
2021/12/05 16:35:32;;;;;;;24.13;6.25;;;;;;;7.50;89.43;99005.66;4974265;28;20109;-67
2021/12/05 16:37:57;;;;;;;13.18;5.07;;;;;;;7.49;89.59;99006.59;4987110;28;20489;-67
2021/12/05 16:40:24;;;;;;;10.63;4.30;;;;;;;7.50;90.27;99006.53;4993982;28;20092;-67
2021/12/05 16:43:07;;;;;;;8.57;4.95;;;;;;;7.51;90.53;99018.84;4990262;28;20038;-67
2021/12/05 16:45:38;;;;;;;9.82;5.70;;;;;;;7.47;90.85;99005.78;4989918;28;20030;-67
2021/12/05 16:48:05;;;;;;;9.07;4.93;;;;;;;7.47;90.79;99014.59;4993778;28;20556;-67
2021/12/05 16:50:31;;;;;;;6.45;3.22;;;;;;;7.45;91.21;99020.84;4986746;28;20035;-67
2021/12/05 16:52:56;;;;;;;8.55;4.57;;;;;;;7.43;91.66;99025.34;4972689;28;20019;-67
2021/12/05 16:55:27;;;;;;;8.73;4.10;;;;;;;7.43;92.65;99020.91;4976919;28;20030;-67
2021/12/05 16:58:09;;;;;;;8.68;3.97;;;;;;;7.42;93.02;99029.78;4992619;28;20029;-67
2021/12/05 17:00:39;;;;;;;7.80;4.70;;;;;;;7.41;93.09;99024.53;4993353;28;20030;-67
2021/12/05 17:03:07;;;;;;;11.88;4.65;;;;;;;7.38;94.04;99024.66;4984291;28;20030;-67
2021/12/05 17:05:38;;;;;;;12.70;4.45;;;;;;;7.39;94.31;99032.53;4975279;28;20113;-67
2021/12/05 17:08:17;;;;;;;15.93;7.47;;;;;;;7.32;95.08;99028.38;4974344;28;20026;-67
2021/12/05 17:10:53;;;;;;;11.05;7.57;;;;;;;7.38;95.40;99049.31;4976143;28;20027;-67
2021/12/05 17:13:24;;;;;;;6.47;3.25;;;;;;;7.30;95.65;99050.47;4981053;28;20403;-68
2021/12/05 17:16:02;;;;;;;5.38;2.88;;;;;;;7.25;96.65;99048.00;4990565;28;20037;-68
2021/12/05 17:18:36;;;;;;;6.75;1.92;;;;;;;7.28;96.74;99042.59;4989553;28;20092;-68
2021/12/05 17:21:18;;;;;;;3.72;1.60;;;;;;;7.25;97.21;99048.00;4977938;28;20018;-68
2021/12/05 17:23:45;;;;;;;6.72;2.13;;;;;;;7.25;97.63;99058.59;4975870;28;20034;-67
2021/12/05 17:26:19;;;;;;;3.95;1.70;;;;;;;7.19;97.60;99053.50;4978236;28;20085;-67
2021/12/05 17:28:53;;;;;;;5.45;1.80;;;;;;;7.16;97.61;99064.19;4973498;28;20509;-67
2021/12/05 17:31:25;;;;;;;2.60;1.60;;;;;;;7.11;98.12;99065.25;4987526;28;20030;-67
2021/12/05 17:33:53;;;;;;;2.47;1.90;;;;;;;7.10;98.37;99071.47;4973266;28;20027;-67
2021/12/05 17:36:31;;;;;;;2.70;1.70;;;;;;;7.07;98.56;99064.50;4975953;28;20038;-67